sensor_id;sensor_type;location;lat;lon;timestamp;P1;durP1;ratioP1;P2;durP2;ratioP2
4353;SDS011;11018;51.258;6.806;2022-11-20T00:01:44;27.83;;;18.50;;
4353;SDS011;11018;51.258;6.806;2022-11-20T00:04:10;32.33;;;19.20;;
4353;SDS011;11018;51.258;6.806;2022-11-20T00:06:36;33.60;;;19.15;;
4353;SDS011;11018;51.258;6.806;2022-11-20T00:09:02;26.67;;;18.30;;
4353;SDS011;11018;51.258;6.806;2022-11-20T00:11:30;28.35;;;18.20;;
4353;SDS011;11018;51.258;6.806;2022-11-20T00:13:57;24.42;;;17.10;;
4353;SDS011;11018;51.258;6.806;2022-11-20T00:16:25;26.85;;;18.02;;
4353;SDS011;11018;51.258;6.806;2022-11-20T00:18:51;27.85;;;17.95;;
4353;SDS011;11018;51.258;6.806;2022-11-20T00:21:18;28.90;;;18.48;;
4353;SDS011;11018;51.258;6.806;2022-11-20T00:23:49;28.20;;;18.33;;
4353;SDS011;11018;51.258;6.806;2022-11-20T00:26:17;30.17;;;19.10;;
4353;SDS011;11018;51.258;6.806;2022-11-20T00:28:48;28.38;;;18.33;;
4353;SDS011;11018;51.258;6.806;2022-11-20T00:31:24;29.42;;;19.13;;
4353;SDS011;11018;51.258;6.806;2022-11-20T00:33:50;31.85;;;19.63;;
4353;SDS011;11018;51.258;6.806;2022-11-20T00:36:18;29.27;;;19.15;;
4353;SDS011;11018;51.258;6.806;2022-11-20T00:38:45;29.70;;;19.33;;
4353;SDS011;11018;51.258;6.806;2022-11-20T00:41:15;30.80;;;20.20;;
4353;SDS011;11018;51.258;6.806;2022-11-20T00:43:41;32.13;;;19.23;;
4353;SDS011;11018;51.258;6.806;2022-11-20T00:46:08;30.25;;;19.42;;
4353;SDS011;11018;51.258;6.806;2022-11-20T00:48:37;31.20;;;20.20;;
4353;SDS011;11018;51.258;6.806;2022-11-20T00:51:02;30.47;;;20.10;;
4353;SDS011;11018;51.258;6.806;2022-11-20T00:53:28;30.33;;;19.80;;
4353;SDS011;11018;51.258;6.806;2022-11-20T00:58:24;29.67;;;19.23;;
4353;SDS011;11018;51.258;6.806;2022-11-20T01:00:53;32.00;;;19.73;;
4353;SDS011;11018;51.258;6.806;2022-11-20T01:03:36;34.80;;;20.40;;
4353;SDS011;11018;51.258;6.806;2022-11-20T01:06:07;32.25;;;20.63;;
4353;SDS011;11018;51.258;6.806;2022-11-20T01:08:37;31.55;;;19.77;;
4353;SDS011;11018;51.258;6.806;2022-11-20T01:11:04;31.63;;;20.27;;
4353;SDS011;11018;51.258;6.806;2022-11-20T01:13:32;32.50;;;20.95;;
4353;SDS011;11018;51.258;6.806;2022-11-20T01:16:05;28.97;;;19.50;;
4353;SDS011;11018;51.258;6.806;2022-11-20T01:18:30;34.38;;;20.77;;
4353;SDS011;11018;51.258;6.806;2022-11-20T01:21:00;31.45;;;20.42;;
4353;SDS011;11018;51.258;6.806;2022-11-20T01:23:33;31.97;;;20.37;;
4353;SDS011;11018;51.258;6.806;2022-11-20T01:26:01;32.28;;;20.55;;
4353;SDS011;11018;51.258;6.806;2022-11-20T01:28:29;33.80;;;21.60;;
4353;SDS011;11018;51.258;6.806;2022-11-20T01:30:55;33.33;;;21.20;;
4353;SDS011;11018;51.258;6.806;2022-11-20T01:33:20;33.90;;;20.95;;
4353;SDS011;11018;51.258;6.806;2022-11-20T01:35:46;34.88;;;22.05;;
4353;SDS011;11018;51.258;6.806;2022-11-20T01:38:12;31.00;;;20.45;;
4353;SDS011;11018;51.258;6.806;2022-11-20T01:40:37;31.55;;;19.95;;
4353;SDS011;11018;51.258;6.806;2022-11-20T01:43:21;29.40;;;19.33;;
4353;SDS011;11018;51.258;6.806;2022-11-20T01:45:58;30.98;;;19.55;;
4353;SDS011;11018;51.258;6.806;2022-11-20T01:48:42;27.73;;;18.83;;
4353;SDS011;11018;51.258;6.806;2022-11-20T01:51:24;28.83;;;19.10;;
4353;SDS011;11018;51.258;6.806;2022-11-20T01:53:54;32.55;;;20.25;;
4353;SDS011;11018;51.258;6.806;2022-11-20T01:56:23;30.88;;;19.80;;
4353;SDS011;11018;51.258;6.806;2022-11-20T01:58:52;29.57;;;19.00;;
4353;SDS011;11018;51.258;6.806;2022-11-20T02:01:21;30.35;;;19.05;;
4353;SDS011;11018;51.258;6.806;2022-11-20T02:03:47;32.10;;;21.00;;
4353;SDS011;11018;51.258;6.806;2022-11-20T02:08:51;30.83;;;20.02;;
4353;SDS011;11018;51.258;6.806;2022-11-20T02:11:17;33.42;;;20.00;;
4353;SDS011;11018;51.258;6.806;2022-11-20T02:13:43;30.98;;;19.83;;
4353;SDS011;11018;51.258;6.806;2022-11-20T02:16:52;32.53;;;20.45;;
4353;SDS011;11018;51.258;6.806;2022-11-20T02:19:00;31.23;;;21.25;;
4353;SDS011;11018;51.258;6.806;2022-11-20T02:24:08;34.55;;;21.60;;
4353;SDS011;11018;51.258;6.806;2022-11-20T02:26:39;33.17;;;20.67;;
4353;SDS011;11018;51.258;6.806;2022-11-20T02:29:28;33.97;;;21.65;;
4353;SDS011;11018;51.258;6.806;2022-11-20T02:31:58;37.73;;;22.53;;
4353;SDS011;11018;51.258;6.806;2022-11-20T02:34:26;37.53;;;23.33;;
4353;SDS011;11018;51.258;6.806;2022-11-20T02:36:51;39.33;;;23.80;;
4353;SDS011;11018;51.258;6.806;2022-11-20T02:39:17;39.35;;;23.65;;
4353;SDS011;11018;51.258;6.806;2022-11-20T02:41:45;37.03;;;22.42;;
4353;SDS011;11018;51.258;6.806;2022-11-20T02:44:13;37.00;;;22.55;;
4353;SDS011;11018;51.258;6.806;2022-11-20T02:46:41;40.42;;;22.73;;
4353;SDS011;11018;51.258;6.806;2022-11-20T02:49:07;37.80;;;23.55;;
4353;SDS011;11018;51.258;6.806;2022-11-20T02:51:33;37.63;;;23.67;;
4353;SDS011;11018;51.258;6.806;2022-11-20T02:53:58;38.70;;;23.40;;
4353;SDS011;11018;51.258;6.806;2022-11-20T02:56:24;38.83;;;23.33;;
4353;SDS011;11018;51.258;6.806;2022-11-20T02:58:50;38.65;;;23.58;;
4353;SDS011;11018;51.258;6.806;2022-11-20T03:01:21;38.63;;;22.38;;
4353;SDS011;11018;51.258;6.806;2022-11-20T03:03:46;38.72;;;24.27;;
4353;SDS011;11018;51.258;6.806;2022-11-20T03:06:13;43.10;;;24.17;;
4353;SDS011;11018;51.258;6.806;2022-11-20T03:08:40;37.88;;;23.20;;
4353;SDS011;11018;51.258;6.806;2022-11-20T03:11:06;35.63;;;21.98;;
4353;SDS011;11018;51.258;6.806;2022-11-20T03:13:33;38.58;;;23.20;;
4353;SDS011;11018;51.258;6.806;2022-11-20T03:16:04;39.40;;;24.23;;
4353;SDS011;11018;51.258;6.806;2022-11-20T03:18:38;42.45;;;24.58;;
4353;SDS011;11018;51.258;6.806;2022-11-20T03:21:04;40.38;;;24.00;;
4353;SDS011;11018;51.258;6.806;2022-11-20T03:23:30;40.22;;;24.15;;
4353;SDS011;11018;51.258;6.806;2022-11-20T03:26:06;39.65;;;24.20;;
4353;SDS011;11018;51.258;6.806;2022-11-20T03:28:33;41.15;;;23.83;;
4353;SDS011;11018;51.258;6.806;2022-11-20T03:30:59;41.50;;;23.60;;
4353;SDS011;11018;51.258;6.806;2022-11-20T03:33:37;41.53;;;23.95;;
4353;SDS011;11018;51.258;6.806;2022-11-20T03:36:04;41.67;;;24.13;;
4353;SDS011;11018;51.258;6.806;2022-11-20T03:38:31;44.00;;;24.73;;
4353;SDS011;11018;51.258;6.806;2022-11-20T03:40:58;40.97;;;24.85;;
4353;SDS011;11018;51.258;6.806;2022-11-20T03:43:25;38.25;;;24.20;;
4353;SDS011;11018;51.258;6.806;2022-11-20T03:45:51;39.60;;;23.85;;
4353;SDS011;11018;51.258;6.806;2022-11-20T03:48:16;41.30;;;24.77;;
4353;SDS011;11018;51.258;6.806;2022-11-20T03:50:42;40.73;;;24.40;;
4353;SDS011;11018;51.258;6.806;2022-11-20T03:53:07;43.07;;;23.83;;
4353;SDS011;11018;51.258;6.806;2022-11-20T03:55:33;40.87;;;25.13;;
4353;SDS011;11018;51.258;6.806;2022-11-20T03:57:59;40.37;;;24.47;;
4353;SDS011;11018;51.258;6.806;2022-11-20T04:00:24;36.17;;;22.60;;
4353;SDS011;11018;51.258;6.806;2022-11-20T04:02:50;37.13;;;22.83;;
4353;SDS011;11018;51.258;6.806;2022-11-20T04:05:15;37.87;;;21.87;;
4353;SDS011;11018;51.258;6.806;2022-11-20T04:07:41;41.43;;;20.30;;
4353;SDS011;11018;51.258;6.806;2022-11-20T04:10:06;30.90;;;19.63;;
4353;SDS011;11018;51.258;6.806;2022-11-20T04:12:32;33.20;;;21.50;;
4353;SDS011;11018;51.258;6.806;2022-11-20T04:14:58;31.48;;;19.60;;
4353;SDS011;11018;51.258;6.806;2022-11-20T04:17:24;33.03;;;20.10;;
4353;SDS011;11018;51.258;6.806;2022-11-20T04:19:49;29.83;;;19.47;;
4353;SDS011;11018;51.258;6.806;2022-11-20T04:22:15;28.90;;;19.17;;
4353;SDS011;11018;51.258;6.806;2022-11-20T04:24:41;31.33;;;20.57;;
4353;SDS011;11018;51.258;6.806;2022-11-20T04:27:06;29.83;;;19.80;;
4353;SDS011;11018;51.258;6.806;2022-11-20T04:29:32;32.53;;;20.43;;
4353;SDS011;11018;51.258;6.806;2022-11-20T04:31:57;32.27;;;21.30;;
4353;SDS011;11018;51.258;6.806;2022-11-20T04:34:23;34.10;;;21.60;;
4353;SDS011;11018;51.258;6.806;2022-11-20T04:36:48;33.80;;;21.63;;
4353;SDS011;11018;51.258;6.806;2022-11-20T04:39:14;38.23;;;23.83;;
4353;SDS011;11018;51.258;6.806;2022-11-20T04:41:40;40.70;;;23.88;;
4353;SDS011;11018;51.258;6.806;2022-11-20T04:44:06;38.08;;;24.30;;
4353;SDS011;11018;51.258;6.806;2022-11-20T04:46:35;38.58;;;22.85;;
4353;SDS011;11018;51.258;6.806;2022-11-20T04:49:03;41.87;;;22.93;;
4353;SDS011;11018;51.258;6.806;2022-11-20T04:51:29;33.50;;;22.00;;
4353;SDS011;11018;51.258;6.806;2022-11-20T04:53:55;38.03;;;23.35;;
4353;SDS011;11018;51.258;6.806;2022-11-20T04:56:21;37.92;;;23.33;;
4353;SDS011;11018;51.258;6.806;2022-11-20T04:58:46;39.00;;;23.40;;
4353;SDS011;11018;51.258;6.806;2022-11-20T05:01:13;36.63;;;22.63;;
4353;SDS011;11018;51.258;6.806;2022-11-20T05:03:40;37.47;;;23.38;;
4353;SDS011;11018;51.258;6.806;2022-11-20T05:06:07;39.33;;;24.50;;
4353;SDS011;11018;51.258;6.806;2022-11-20T05:08:34;38.47;;;23.85;;
4353;SDS011;11018;51.258;6.806;2022-11-20T05:11:07;41.00;;;24.50;;
4353;SDS011;11018;51.258;6.806;2022-11-20T05:13:35;39.90;;;24.83;;
4353;SDS011;11018;51.258;6.806;2022-11-20T05:16:04;40.10;;;24.40;;
4353;SDS011;11018;51.258;6.806;2022-11-20T05:18:32;40.05;;;23.98;;
4353;SDS011;11018;51.258;6.806;2022-11-20T05:20:58;37.88;;;23.30;;
4353;SDS011;11018;51.258;6.806;2022-11-20T05:23:25;38.43;;;25.27;;
4353;SDS011;11018;51.258;6.806;2022-11-20T05:25:52;41.80;;;24.73;;
4353;SDS011;11018;51.258;6.806;2022-11-20T05:28:19;43.72;;;26.27;;
4353;SDS011;11018;51.258;6.806;2022-11-20T05:30:44;37.30;;;23.47;;
4353;SDS011;11018;51.258;6.806;2022-11-20T05:33:10;37.60;;;24.80;;
4353;SDS011;11018;51.258;6.806;2022-11-20T05:35:35;41.73;;;26.20;;
4353;SDS011;11018;51.258;6.806;2022-11-20T05:38:01;40.50;;;26.40;;
4353;SDS011;11018;51.258;6.806;2022-11-20T05:40:26;41.10;;;26.23;;
4353;SDS011;11018;51.258;6.806;2022-11-20T05:42:52;42.47;;;26.13;;
4353;SDS011;11018;51.258;6.806;2022-11-20T05:45:17;37.10;;;24.77;;
4353;SDS011;11018;51.258;6.806;2022-11-20T05:47:43;41.33;;;26.23;;
4353;SDS011;11018;51.258;6.806;2022-11-20T05:50:09;42.80;;;26.55;;
4353;SDS011;11018;51.258;6.806;2022-11-20T05:52:34;39.38;;;25.95;;
4353;SDS011;11018;51.258;6.806;2022-11-20T05:55:00;41.72;;;26.40;;
4353;SDS011;11018;51.258;6.806;2022-11-20T05:57:25;44.22;;;26.40;;
4353;SDS011;11018;51.258;6.806;2022-11-20T05:59:51;42.75;;;26.92;;
4353;SDS011;11018;51.258;6.806;2022-11-20T06:02:16;39.80;;;25.13;;
4353;SDS011;11018;51.258;6.806;2022-11-20T06:04:42;43.77;;;25.40;;
4353;SDS011;11018;51.258;6.806;2022-11-20T06:07:07;38.20;;;25.23;;
4353;SDS011;11018;51.258;6.806;2022-11-20T06:09:33;46.03;;;26.00;;
4353;SDS011;11018;51.258;6.806;2022-11-20T06:11:59;40.97;;;25.93;;
4353;SDS011;11018;51.258;6.806;2022-11-20T06:14:24;40.60;;;25.87;;
4353;SDS011;11018;51.258;6.806;2022-11-20T06:16:50;38.70;;;25.00;;
4353;SDS011;11018;51.258;6.806;2022-11-20T06:19:15;40.53;;;26.00;;
4353;SDS011;11018;51.258;6.806;2022-11-20T06:21:41;39.28;;;25.40;;
4353;SDS011;11018;51.258;6.806;2022-11-20T06:24:08;44.33;;;26.60;;
4353;SDS011;11018;51.258;6.806;2022-11-20T06:26:36;46.08;;;26.42;;
4353;SDS011;11018;51.258;6.806;2022-11-20T06:29:01;50.95;;;28.90;;
4353;SDS011;11018;51.258;6.806;2022-11-20T06:31:27;45.87;;;26.63;;
4353;SDS011;11018;51.258;6.806;2022-11-20T06:33:53;43.65;;;26.50;;
4353;SDS011;11018;51.258;6.806;2022-11-20T06:36:19;46.60;;;25.90;;
4353;SDS011;11018;51.258;6.806;2022-11-20T06:38:46;43.10;;;26.25;;
4353;SDS011;11018;51.258;6.806;2022-11-20T06:41:14;41.20;;;24.93;;
4353;SDS011;11018;51.258;6.806;2022-11-20T06:43:44;38.83;;;24.70;;
4353;SDS011;11018;51.258;6.806;2022-11-20T06:46:10;38.50;;;23.52;;
4353;SDS011;11018;51.258;6.806;2022-11-20T06:48:37;39.47;;;24.65;;
4353;SDS011;11018;51.258;6.806;2022-11-20T06:51:03;41.40;;;24.23;;
4353;SDS011;11018;51.258;6.806;2022-11-20T06:53:30;40.60;;;24.80;;
4353;SDS011;11018;51.258;6.806;2022-11-20T06:55:56;41.27;;;26.33;;
4353;SDS011;11018;51.258;6.806;2022-11-20T06:58:22;42.58;;;25.40;;
4353;SDS011;11018;51.258;6.806;2022-11-20T07:00:48;40.67;;;24.73;;
4353;SDS011;11018;51.258;6.806;2022-11-20T07:03:14;38.03;;;24.20;;
4353;SDS011;11018;51.258;6.806;2022-11-20T07:05:39;38.13;;;24.80;;
4353;SDS011;11018;51.258;6.806;2022-11-20T07:08:05;39.85;;;25.13;;
4353;SDS011;11018;51.258;6.806;2022-11-20T07:10:31;41.97;;;24.73;;
4353;SDS011;11018;51.258;6.806;2022-11-20T07:12:57;40.60;;;25.48;;
4353;SDS011;11018;51.258;6.806;2022-11-20T07:15:23;41.22;;;25.50;;
4353;SDS011;11018;51.258;6.806;2022-11-20T07:17:49;42.90;;;25.20;;
4353;SDS011;11018;51.258;6.806;2022-11-20T07:20:15;48.77;;;25.40;;
4353;SDS011;11018;51.258;6.806;2022-11-20T07:22:41;38.95;;;25.17;;
4353;SDS011;11018;51.258;6.806;2022-11-20T07:25:08;43.40;;;26.23;;
4353;SDS011;11018;51.258;6.806;2022-11-20T07:27:34;51.20;;;27.58;;
4353;SDS011;11018;51.258;6.806;2022-11-20T07:30:00;50.75;;;29.70;;
4353;SDS011;11018;51.258;6.806;2022-11-20T07:32:26;45.42;;;27.30;;
4353;SDS011;11018;51.258;6.806;2022-11-20T07:34:51;46.00;;;27.27;;
4353;SDS011;11018;51.258;6.806;2022-11-20T07:37:17;44.37;;;28.93;;
4353;SDS011;11018;51.258;6.806;2022-11-20T07:39:43;42.53;;;26.27;;
4353;SDS011;11018;51.258;6.806;2022-11-20T07:42:08;48.40;;;30.40;;
4353;SDS011;11018;51.258;6.806;2022-11-20T07:44:34;45.83;;;27.97;;
4353;SDS011;11018;51.258;6.806;2022-11-20T07:47:00;48.63;;;28.00;;
4353;SDS011;11018;51.258;6.806;2022-11-20T07:49:26;46.60;;;28.75;;
4353;SDS011;11018;51.258;6.806;2022-11-20T07:51:51;51.72;;;29.95;;
4353;SDS011;11018;51.258;6.806;2022-11-20T07:54:20;47.45;;;29.80;;
4353;SDS011;11018;51.258;6.806;2022-11-20T07:56:46;46.92;;;28.73;;
4353;SDS011;11018;51.258;6.806;2022-11-20T07:59:12;47.80;;;29.25;;
4353;SDS011;11018;51.258;6.806;2022-11-20T08:01:38;43.90;;;27.63;;
4353;SDS011;11018;51.258;6.806;2022-11-20T08:04:04;44.95;;;27.05;;
4353;SDS011;11018;51.258;6.806;2022-11-20T08:06:31;40.97;;;25.20;;
4353;SDS011;11018;51.258;6.806;2022-11-20T08:08:56;45.53;;;25.60;;
4353;SDS011;11018;51.258;6.806;2022-11-20T08:11:22;39.63;;;24.97;;
4353;SDS011;11018;51.258;6.806;2022-11-20T08:14:06;37.00;;;23.98;;
4353;SDS011;11018;51.258;6.806;2022-11-20T08:16:38;41.63;;;24.38;;
4353;SDS011;11018;51.258;6.806;2022-11-20T08:19:04;40.92;;;25.10;;
4353;SDS011;11018;51.258;6.806;2022-11-20T08:21:30;36.87;;;23.30;;
4353;SDS011;11018;51.258;6.806;2022-11-20T08:23:56;34.72;;;22.90;;
4353;SDS011;11018;51.258;6.806;2022-11-20T08:26:22;34.85;;;22.70;;
4353;SDS011;11018;51.258;6.806;2022-11-20T08:28:48;51.05;;;28.05;;
4353;SDS011;11018;51.258;6.806;2022-11-20T08:31:14;36.80;;;23.50;;
4353;SDS011;11018;51.258;6.806;2022-11-20T08:33:40;35.90;;;23.10;;
4353;SDS011;11018;51.258;6.806;2022-11-20T08:36:05;34.33;;;21.87;;
4353;SDS011;11018;51.258;6.806;2022-11-20T08:38:32;39.17;;;23.90;;
4353;SDS011;11018;51.258;6.806;2022-11-20T08:41:00;36.10;;;23.43;;
4353;SDS011;11018;51.258;6.806;2022-11-20T08:43:45;34.70;;;22.27;;
4353;SDS011;11018;51.258;6.806;2022-11-20T08:46:11;35.13;;;23.13;;
4353;SDS011;11018;51.258;6.806;2022-11-20T08:48:37;35.40;;;22.08;;
4353;SDS011;11018;51.258;6.806;2022-11-20T08:51:02;34.87;;;22.60;;
4353;SDS011;11018;51.258;6.806;2022-11-20T08:53:28;38.60;;;22.40;;
4353;SDS011;11018;51.258;6.806;2022-11-20T08:55:54;36.63;;;23.80;;
4353;SDS011;11018;51.258;6.806;2022-11-20T08:58:21;33.63;;;22.15;;
4353;SDS011;11018;51.258;6.806;2022-11-20T09:00:46;28.50;;;19.60;;
4353;SDS011;11018;51.258;6.806;2022-11-20T09:03:12;30.60;;;19.30;;
4353;SDS011;11018;51.258;6.806;2022-11-20T09:05:38;31.77;;;19.77;;
4353;SDS011;11018;51.258;6.806;2022-11-20T09:08:04;32.13;;;21.48;;
4353;SDS011;11018;51.258;6.806;2022-11-20T09:10:29;29.65;;;19.55;;
4353;SDS011;11018;51.258;6.806;2022-11-20T09:12:55;33.05;;;19.60;;
4353;SDS011;11018;51.258;6.806;2022-11-20T09:15:21;29.42;;;18.02;;
4353;SDS011;11018;51.258;6.806;2022-11-20T09:17:58;30.70;;;19.42;;
4353;SDS011;11018;51.258;6.806;2022-11-20T09:20:29;31.00;;;21.27;;
4353;SDS011;11018;51.258;6.806;2022-11-20T09:22:55;32.88;;;20.88;;
4353;SDS011;11018;51.258;6.806;2022-11-20T09:25:21;31.77;;;19.97;;
4353;SDS011;11018;51.258;6.806;2022-11-20T09:27:47;32.43;;;20.47;;
4353;SDS011;11018;51.258;6.806;2022-11-20T09:30:16;35.33;;;21.55;;
4353;SDS011;11018;51.258;6.806;2022-11-20T09:32:42;37.35;;;21.75;;
4353;SDS011;11018;51.258;6.806;2022-11-20T09:35:08;32.75;;;20.90;;
4353;SDS011;11018;51.258;6.806;2022-11-20T09:37:34;36.67;;;21.42;;
4353;SDS011;11018;51.258;6.806;2022-11-20T09:40:00;34.47;;;21.83;;
4353;SDS011;11018;51.258;6.806;2022-11-20T09:42:45;33.20;;;20.80;;
4353;SDS011;11018;51.258;6.806;2022-11-20T09:48:12;33.53;;;19.90;;
4353;SDS011;11018;51.258;6.806;2022-11-20T09:55:48;33.75;;;21.10;;
4353;SDS011;11018;51.258;6.806;2022-11-20T10:00:54;33.25;;;21.40;;
4353;SDS011;11018;51.258;6.806;2022-11-20T10:03:39;37.28;;;21.75;;
4353;SDS011;11018;51.258;6.806;2022-11-20T10:06:07;36.13;;;22.92;;
4353;SDS011;11018;51.258;6.806;2022-11-20T10:08:48;35.60;;;22.63;;
4353;SDS011;11018;51.258;6.806;2022-11-20T10:11:46;31.73;;;20.42;;
4353;SDS011;11018;51.258;6.806;2022-11-20T10:22:47;36.67;;;21.85;;
4353;SDS011;11018;51.258;6.806;2022-11-20T10:25:24;36.85;;;22.08;;
4353;SDS011;11018;51.258;6.806;2022-11-20T10:31:01;33.00;;;21.15;;
4353;SDS011;11018;51.258;6.806;2022-11-20T10:33:31;32.17;;;20.65;;
4353;SDS011;11018;51.258;6.806;2022-11-20T10:38:37;33.55;;;20.67;;
4353;SDS011;11018;51.258;6.806;2022-11-20T10:41:26;38.17;;;22.00;;
4353;SDS011;11018;51.258;6.806;2022-11-20T10:46:40;33.28;;;21.20;;
4353;SDS011;11018;51.258;6.806;2022-11-20T10:49:16;34.20;;;21.67;;
4353;SDS011;11018;51.258;6.806;2022-11-20T10:51:52;34.70;;;21.67;;
4353;SDS011;11018;51.258;6.806;2022-11-20T11:00:05;37.88;;;22.13;;
4353;SDS011;11018;51.258;6.806;2022-11-20T11:02:42;38.60;;;22.80;;
4353;SDS011;11018;51.258;6.806;2022-11-20T11:05:23;40.83;;;23.90;;
4353;SDS011;11018;51.258;6.806;2022-11-20T11:08:02;37.97;;;23.20;;
4353;SDS011;11018;51.258;6.806;2022-11-20T11:10:39;38.10;;;23.10;;
4353;SDS011;11018;51.258;6.806;2022-11-20T11:13:19;44.03;;;24.75;;
4353;SDS011;11018;51.258;6.806;2022-11-20T11:15:45;42.33;;;24.33;;
4353;SDS011;11018;51.258;6.806;2022-11-20T11:18:11;39.70;;;24.10;;
4353;SDS011;11018;51.258;6.806;2022-11-20T11:20:49;39.50;;;24.50;;
4353;SDS011;11018;51.258;6.806;2022-11-20T11:23:56;40.80;;;24.58;;
4353;SDS011;11018;51.258;6.806;2022-11-20T11:26:21;37.65;;;22.40;;
4353;SDS011;11018;51.258;6.806;2022-11-20T11:28:58;38.28;;;23.52;;
4353;SDS011;11018;51.258;6.806;2022-11-20T11:31:29;38.65;;;24.30;;
4353;SDS011;11018;51.258;6.806;2022-11-20T11:34:12;39.42;;;22.48;;
4353;SDS011;11018;51.258;6.806;2022-11-20T11:36:39;38.27;;;23.63;;
4353;SDS011;11018;51.258;6.806;2022-11-20T11:39:11;38.03;;;23.08;;
4353;SDS011;11018;51.258;6.806;2022-11-20T11:41:39;32.95;;;22.25;;
4353;SDS011;11018;51.258;6.806;2022-11-20T11:44:16;38.45;;;22.80;;
4353;SDS011;11018;51.258;6.806;2022-11-20T11:50:00;35.22;;;21.65;;
4353;SDS011;11018;51.258;6.806;2022-11-20T11:52:58;39.80;;;22.37;;
4353;SDS011;11018;51.258;6.806;2022-11-20T12:00:57;35.55;;;21.95;;
4353;SDS011;11018;51.258;6.806;2022-11-20T12:03:37;33.33;;;21.55;;
4353;SDS011;11018;51.258;6.806;2022-11-20T12:06:13;34.33;;;21.27;;
4353;SDS011;11018;51.258;6.806;2022-11-20T12:08:51;38.38;;;22.48;;
4353;SDS011;11018;51.258;6.806;2022-11-20T12:14:15;39.03;;;22.48;;
4353;SDS011;11018;51.258;6.806;2022-11-20T12:17:05;38.60;;;24.08;;
4353;SDS011;11018;51.258;6.806;2022-11-20T12:19:36;35.55;;;22.35;;
4353;SDS011;11018;51.258;6.806;2022-11-20T12:22:05;36.60;;;22.83;;
4353;SDS011;11018;51.258;6.806;2022-11-20T12:24:49;39.45;;;23.50;;
4353;SDS011;11018;51.258;6.806;2022-11-20T12:27:47;36.92;;;22.35;;
4353;SDS011;11018;51.258;6.806;2022-11-20T12:30:38;35.95;;;22.80;;
4353;SDS011;11018;51.258;6.806;2022-11-20T12:33:31;39.80;;;23.53;;
4353;SDS011;11018;51.258;6.806;2022-11-20T12:36:13;42.90;;;23.70;;
4353;SDS011;11018;51.258;6.806;2022-11-20T12:48:10;39.38;;;23.90;;
4353;SDS011;11018;51.258;6.806;2022-11-20T12:50:43;40.15;;;23.90;;
4353;SDS011;11018;51.258;6.806;2022-11-20T12:53:41;36.00;;;22.90;;
4353;SDS011;11018;51.258;6.806;2022-11-20T12:58:46;45.35;;;25.98;;
4353;SDS011;11018;51.258;6.806;2022-11-20T13:01:37;44.05;;;26.05;;
4353;SDS011;11018;51.258;6.806;2022-11-20T13:07:16;41.70;;;25.42;;
4353;SDS011;11018;51.258;6.806;2022-11-20T13:09:45;43.15;;;26.98;;
4353;SDS011;11018;51.258;6.806;2022-11-20T13:12:15;45.58;;;26.20;;
4353;SDS011;11018;51.258;6.806;2022-11-20T13:20:16;45.70;;;26.88;;
4353;SDS011;11018;51.258;6.806;2022-11-20T13:22:50;47.42;;;27.30;;
4353;SDS011;11018;51.258;6.806;2022-11-20T13:25:23;49.05;;;28.13;;
4353;SDS011;11018;51.258;6.806;2022-11-20T13:27:50;50.07;;;29.93;;
4353;SDS011;11018;51.258;6.806;2022-11-20T13:30:23;50.27;;;29.83;;
4353;SDS011;11018;51.258;6.806;2022-11-20T13:32:56;51.03;;;29.55;;
4353;SDS011;11018;51.258;6.806;2022-11-20T13:37:59;54.90;;;29.93;;
4353;SDS011;11018;51.258;6.806;2022-11-20T13:40:29;50.75;;;28.13;;
4353;SDS011;11018;51.258;6.806;2022-11-20T13:43:02;47.88;;;28.55;;
4353;SDS011;11018;51.258;6.806;2022-11-20T13:45:30;50.33;;;29.52;;
4353;SDS011;11018;51.258;6.806;2022-11-20T13:47:57;48.75;;;28.63;;
4353;SDS011;11018;51.258;6.806;2022-11-20T13:53:04;51.25;;;30.70;;
4353;SDS011;11018;51.258;6.806;2022-11-20T13:55:38;56.95;;;30.20;;
4353;SDS011;11018;51.258;6.806;2022-11-20T14:00:51;50.60;;;30.17;;
4353;SDS011;11018;51.258;6.806;2022-11-20T14:03:23;54.13;;;29.23;;
4353;SDS011;11018;51.258;6.806;2022-11-20T14:05:56;49.37;;;29.03;;
4353;SDS011;11018;51.258;6.806;2022-11-20T14:08:36;52.08;;;29.90;;
4353;SDS011;11018;51.258;6.806;2022-11-20T14:11:21;51.70;;;31.43;;
4353;SDS011;11018;51.258;6.806;2022-11-20T14:16:23;47.80;;;28.38;;
4353;SDS011;11018;51.258;6.806;2022-11-20T14:18:49;50.92;;;29.08;;
4353;SDS011;11018;51.258;6.806;2022-11-20T14:21:24;55.50;;;31.65;;
4353;SDS011;11018;51.258;6.806;2022-11-20T14:24:33;52.83;;;31.13;;
4353;SDS011;11018;51.258;6.806;2022-11-20T14:26:44;59.78;;;36.05;;
4353;SDS011;11018;51.258;6.806;2022-11-20T14:29:14;62.45;;;34.13;;
4353;SDS011;11018;51.258;6.806;2022-11-20T14:31:46;55.30;;;31.40;;
4353;SDS011;11018;51.258;6.806;2022-11-20T14:34:16;54.42;;;31.67;;
4353;SDS011;11018;51.258;6.806;2022-11-20T14:36:47;57.85;;;32.75;;
4353;SDS011;11018;51.258;6.806;2022-11-20T14:39:32;52.67;;;31.35;;
4353;SDS011;11018;51.258;6.806;2022-11-20T14:44:39;57.57;;;32.43;;
4353;SDS011;11018;51.258;6.806;2022-11-20T14:47:08;54.70;;;30.47;;
4353;SDS011;11018;51.258;6.806;2022-11-20T14:49:38;57.70;;;32.63;;
4353;SDS011;11018;51.258;6.806;2022-11-20T14:54:59;50.80;;;29.13;;
4353;SDS011;11018;51.258;6.806;2022-11-20T14:57:26;52.63;;;29.53;;
4353;SDS011;11018;51.258;6.806;2022-11-20T15:02:43;50.75;;;28.77;;
4353;SDS011;11018;51.258;6.806;2022-11-20T15:05:10;51.67;;;30.55;;
4353;SDS011;11018;51.258;6.806;2022-11-20T15:07:37;50.67;;;30.63;;
4353;SDS011;11018;51.258;6.806;2022-11-20T15:12:40;50.10;;;29.40;;
4353;SDS011;11018;51.258;6.806;2022-11-20T15:15:15;54.08;;;30.75;;
4353;SDS011;11018;51.258;6.806;2022-11-20T15:17:45;52.83;;;28.88;;
4353;SDS011;11018;51.258;6.806;2022-11-20T15:20:12;50.10;;;28.73;;
4353;SDS011;11018;51.258;6.806;2022-11-20T15:22:39;54.45;;;30.73;;
4353;SDS011;11018;51.258;6.806;2022-11-20T15:25:11;63.23;;;35.13;;
4353;SDS011;11018;51.258;6.806;2022-11-20T15:27:39;58.13;;;31.02;;
4353;SDS011;11018;51.258;6.806;2022-11-20T15:30:25;53.25;;;30.70;;
4353;SDS011;11018;51.258;6.806;2022-11-20T15:32:50;50.42;;;27.92;;
4353;SDS011;11018;51.258;6.806;2022-11-20T15:35:16;52.05;;;31.52;;
4353;SDS011;11018;51.258;6.806;2022-11-20T15:37:41;58.53;;;32.08;;
4353;SDS011;11018;51.258;6.806;2022-11-20T15:40:08;55.80;;;30.02;;
4353;SDS011;11018;51.258;6.806;2022-11-20T15:42:34;44.47;;;26.20;;
4353;SDS011;11018;51.258;6.806;2022-11-20T15:45:00;53.95;;;29.60;;
4353;SDS011;11018;51.258;6.806;2022-11-20T15:47:29;47.95;;;27.95;;
4353;SDS011;11018;51.258;6.806;2022-11-20T15:49:58;53.22;;;31.40;;
4353;SDS011;11018;51.258;6.806;2022-11-20T15:52:23;53.20;;;30.53;;
4353;SDS011;11018;51.258;6.806;2022-11-20T15:54:49;49.60;;;30.33;;
4353;SDS011;11018;51.258;6.806;2022-11-20T15:57:14;53.20;;;28.90;;
4353;SDS011;11018;51.258;6.806;2022-11-20T15:59:40;48.07;;;28.33;;
4353;SDS011;11018;51.258;6.806;2022-11-20T16:02:13;52.63;;;29.73;;
4353;SDS011;11018;51.258;6.806;2022-11-20T16:04:40;54.72;;;30.42;;
4353;SDS011;11018;51.258;6.806;2022-11-20T16:07:06;42.70;;;26.00;;
4353;SDS011;11018;51.258;6.806;2022-11-20T16:09:32;56.65;;;32.65;;
4353;SDS011;11018;51.258;6.806;2022-11-20T16:11:57;56.72;;;31.33;;
4353;SDS011;11018;51.258;6.806;2022-11-20T16:14:24;52.30;;;30.42;;
4353;SDS011;11018;51.258;6.806;2022-11-20T16:17:12;54.05;;;29.92;;
4353;SDS011;11018;51.258;6.806;2022-11-20T16:19:38;53.40;;;30.60;;
4353;SDS011;11018;51.258;6.806;2022-11-20T16:22:03;56.55;;;31.98;;